McCaysville, Georgia
Current Conditions -  °F | °C
As of 9:35 PM on Thursday 20 Nov 2014 (Local Time) from KMMI Reporting Station
Clear Clear  
Wind Chill: 32°   Ceiling: Unl
Heat Index: 32°   Visibility: 10mi
Dew Point: 25°   Wind: 0mph
Humidity: 75%   Direction: NA
Pressure: 30.26"   Gusts: NA
Location:  34.99°N, 84.37°W
Report Text: KMMI 210235Z AUTO 00000KT 10SM CLR 00/M04 A3026 RMK
Loading
Personal Weather Stations






























Interactive Weather Map New forecast layout! Learn more

10-Day Weather Forecast

Advertisements
Track Severe Weather on mobile